Copper Cliff, Canada
Current Conditions -  °F | °C
As of 12:00 PM on Thursday 30 Oct 2014 (Local Time) from CYSB Reporting Station
Overcast Overcast  
Wind Chill: 30°   Ceiling: 6900
Heat Index: 34°   Visibility: 20mi
Dew Point: 25°   Wind: 5mph
Humidity: 70%   Direction: 290°WNW
Pressure: 30.04"   Gusts: NA
Location:  46.47°N, 81.07°W
Report Text: CYSB 301600Z 29004KT 260V340 20SM FEW021 OVC069 01/M04 A3004 RMK SC2AC6 SLP187
Loading
Personal Weather Stations






























Interactive Weather Map
Tropical Storm Tracking
New forecast layout! Learn more

10-Day Weather Forecast

Advertisements
Track Severe Weather on mobile